Helmsburg, Indiana
Current Conditions -  °F | °C
As of 8:15 AM on Thursday 23 Oct 2014 (Local Time) from K1II Reporting Station
Moderate Fog Moderate Fog  
Wind Chill: 32°   Ceiling: 100
Heat Index: 32°   Visibility: 0mi
Dew Point: 30°   Wind: 0mph
Humidity: 93%   Direction: NA
Pressure: 30.26"   Gusts: NA
Location:  39.27°N, 86.29°W
Report Text: K1II 231215Z AUTO 00000KT M1/4SM FZFG OVC001 00/M01 A3026 RMK AO2
Loading
Personal Weather Stations






























Interactive Weather Map
Tropical Storm Tracking
New forecast layout! Learn more

10-Day Weather Forecast

Advertisements
Track Severe Weather on mobile